Time;durP1;ratioP1;P1;durP2;ratioP2;P2;SDS_P1;SDS_P2;PMS_P1;PMS_P2;Temp;Humidity;BMP_temperature;BMP_pressure;BME280_temperature;BME280_humidity;BME280_pressure;Samples;Min_cycle;Max_cycle;Signal;HPM_P1;HPM_P2
2021/08/04 00:00:37;;;;;;;9.20;8.40;;;18.00;73.40;;;;;;5074282;28;20444;-74
2021/08/04 00:03:04;;;;;;;9.00;8.20;;;17.90;73.50;;;;;;5074240;28;20448;-74
2021/08/04 00:05:30;;;;;;;9.83;9.00;;;17.90;73.60;;;;;;5074095;28;20461;-74
2021/08/04 00:07:58;;;;;;;9.77;8.87;;;17.90;73.70;;;;;;5074161;28;20444;-73
2021/08/04 00:10:25;;;;;;;9.20;8.40;;;17.80;73.60;;;;;;5074074;28;20440;-73
2021/08/04 00:12:52;;;;;;;8.73;8.03;;;17.80;73.60;;;;;;5073720;28;20437;-73
2021/08/04 00:15:19;;;;;;;10.17;9.37;;;17.80;73.50;;;;;;5073869;28;20480;-74
2021/08/04 00:17:46;;;;;;;10.33;8.47;;;17.70;73.40;;;;;;5073501;28;20935;-74
2021/08/04 00:20:14;;;;;;;9.20;8.43;;;17.70;73.40;;;;;;5073615;28;20440;-74
2021/08/04 00:22:41;;;;;;;8.97;8.17;;;17.70;73.40;;;;;;5073439;28;20832;-72
2021/08/04 00:25:10;;;;;;;9.47;8.60;;;17.70;73.30;;;;;;5073768;28;20464;-72
2021/08/04 00:27:37;;;;;;;8.90;8.10;;;17.60;73.20;;;;;;5073536;28;20449;-72
2021/08/04 00:30:05;;;;;;;8.17;7.47;;;17.60;73.20;;;;;;5073475;28;20808;-74
2021/08/04 00:32:32;;;;;;;9.10;8.30;;;17.60;73.30;;;;;;5073759;28;20449;-72
2021/08/04 00:34:59;;;;;;;8.30;7.60;;;17.50;73.20;;;;;;5073608;28;20489;-72
2021/08/04 00:37:26;;;;;;;9.03;8.23;;;17.50;73.20;;;;;;5073727;28;20449;-74
2021/08/04 00:39:52;;;;;;;9.03;8.23;;;17.50;73.20;;;;;;5073722;28;20448;-72
2021/08/04 00:42:21;;;;;;;9.43;8.63;;;17.40;73.10;;;;;;5073641;28;20441;-73
2021/08/04 00:44:48;;;;;;;9.63;8.63;;;17.40;73.30;;;;;;5073525;28;20479;-74
2021/08/04 00:47:17;;;;;;;9.57;8.77;;;17.40;73.40;;;;;;5073574;28;20440;-74
2021/08/04 00:49:43;;;;;;;9.70;8.70;;;17.40;73.50;;;;;;5073546;28;20456;-74
2021/08/04 00:52:10;;;;;;;8.73;7.93;;;17.30;73.40;;;;;;5073467;28;20463;-73
2021/08/04 00:54:37;;;;;;;8.97;8.03;;;17.30;73.50;;;;;;5073368;28;20477;-74
2021/08/04 00:57:05;;;;;;;9.87;8.90;;;17.30;73.70;;;;;;5073460;28;20452;-73
2021/08/04 00:59:33;;;;;;;9.97;8.97;;;17.30;73.60;;;;;;5073482;28;20444;-73
2021/08/04 01:02:08;;;;;;;9.17;8.23;;;17.20;73.50;;;;;;5073142;28;20966;-73
2021/08/04 01:04:39;;;;;;;8.97;7.67;;;17.10;73.60;;;;;;5073013;28;20982;-74
2021/08/04 01:07:14;;;;;;;9.00;8.30;;;17.10;73.70;;;;;;5073309;28;20444;-74
2021/08/04 01:09:45;;;;;;;10.60;9.20;;;17.10;73.80;;;;;;5074148;28;20428;-74
2021/08/04 01:12:18;;;;;;;10.07;9.07;;;17.00;73.80;;;;;;5073364;28;20429;-74
2021/08/04 01:14:49;;;;;;;9.17;8.47;;;17.00;73.80;;;;;;5073173;28;20530;-74
2021/08/04 01:17:17;;;;;;;10.10;8.70;;;16.80;74.00;;;;;;5073017;28;20903;-74
2021/08/04 01:19:58;;;;;;;8.80;7.97;;;16.70;74.70;;;;;;5073247;28;20445;-73
2021/08/04 01:22:31;;;;;;;8.50;7.70;;;16.70;75.60;;;;;;5072935;28;20408;-74
2021/08/04 01:25:05;;;;;;;8.77;8.00;;;16.60;75.70;;;;;;5073181;28;20305;-73
2021/08/04 01:27:34;;;;;;;7.77;7.17;;;16.60;75.60;;;;;;5073250;28;20432;-73
2021/08/04 01:30:03;;;;;;;8.57;7.87;;;16.70;75.50;;;;;;5076249;28;20466;-73
2021/08/04 01:32:30;;;;;;;9.10;8.07;;;16.70;75.60;;;;;;5077131;28;20454;-74
2021/08/04 01:34:57;;;;;;;8.90;8.20;;;16.70;75.40;;;;;;5076926;28;20507;-73
2021/08/04 01:37:26;;;;;;;8.07;7.40;;;16.70;75.30;;;;;;5077014;28;20444;-74
2021/08/04 01:39:53;;;;;;;10.37;8.07;;;16.70;75.30;;;;;;5076639;28;20477;-73
2021/08/04 01:42:21;;;;;;;9.30;8.40;;;16.70;75.20;;;;;;5076598;28;20436;-73
2021/08/04 01:44:51;;;;;;;9.10;8.40;;;16.70;75.10;;;;;;5076514;28;21001;-74
2021/08/04 01:47:19;;;;;;;9.47;8.63;;;16.70;75.20;;;;;;5076843;28;20429;-73
2021/08/04 01:49:46;;;;;;;9.63;8.77;;;16.70;75.30;;;;;;5076779;28;20444;-73
2021/08/04 01:52:14;;;;;;;9.43;8.53;;;16.60;75.20;;;;;;5076746;28;20478;-73
2021/08/04 01:54:42;;;;;;;9.80;8.90;;;16.60;75.30;;;;;;5076522;28;20471;-74
2021/08/04 01:57:09;;;;;;;11.17;10.10;;;16.60;75.30;;;;;;5076672;28;20467;-73
2021/08/04 01:59:35;;;;;;;9.63;8.37;;;16.50;75.50;;;;;;5076601;28;20453;-73
2021/08/04 02:02:20;;;;;;;9.03;8.30;;;16.50;75.60;;;;;;5076572;28;20444;-73
2021/08/04 02:04:47;;;;;;;9.80;8.90;;;16.50;75.50;;;;;;5076454;28;20464;-73
2021/08/04 02:07:42;;;;;;;10.40;9.50;;;16.50;75.40;;;;;;5076460;28;20456;-73
2021/08/04 02:10:13;;;;;;;9.73;8.73;;;16.50;75.50;;;;;;5076451;28;20425;-73
2021/08/04 02:12:46;;;;;;;9.37;8.63;;;16.50;75.40;;;;;;5076430;28;20432;-73
2021/08/04 02:15:14;;;;;;;9.60;8.60;;;16.40;75.00;;;;;;5076215;28;20484;-73
2021/08/04 02:17:46;;;;;;;9.33;8.43;;;16.40;75.00;;;;;;5076279;28;20447;-73
2021/08/04 02:20:23;;;;;;;10.20;9.30;;;16.30;74.90;;;;;;5075960;28;20777;-73
2021/08/04 02:22:56;;;;;;;11.47;10.47;;;16.30;75.20;;;;;;5075775;28;20977;-73
2021/08/04 02:25:27;;;;;;;12.07;10.87;;;16.30;75.30;;;;;;5076061;28;20460;-73
2021/08/04 02:27:55;;;;;;;10.60;9.60;;;16.30;75.40;;;;;;5076153;28;20433;-73
2021/08/04 02:30:23;;;;;;;10.13;9.37;;;16.30;75.40;;;;;;5075729;28;20814;-73
2021/08/04 02:32:51;;;;;;;11.63;10.30;;;16.30;75.60;;;;;;5076017;28;20448;-73
2021/08/04 02:35:18;;;;;;;11.00;10.03;;;16.30;75.90;;;;;;5075812;28;20484;-73
2021/08/04 02:37:45;;;;;;;11.70;10.57;;;16.30;76.00;;;;;;5075901;28;20448;-73
2021/08/04 02:40:14;;;;;;;10.60;9.70;;;16.30;75.50;;;;;;5074488;28;20441;-73
2021/08/04 02:42:41;;;;;;;10.27;9.37;;;16.30;75.30;;;;;;5075494;28;20961;-73
2021/08/04 02:45:09;;;;;;;11.70;10.70;;;16.30;75.30;;;;;;5075719;28;20491;-73
2021/08/04 02:47:37;;;;;;;11.73;10.57;;;16.30;75.40;;;;;;5075719;28;20440;-73
2021/08/04 02:50:08;;;;;;;11.77;10.70;;;16.20;75.30;;;;;;5075684;28;20449;-72
2021/08/04 02:52:35;;;;;;;10.23;9.23;;;16.20;75.40;;;;;;5075681;28;20827;-74
2021/08/04 02:55:02;;;;;;;10.57;9.77;;;16.20;75.40;;;;;;5075418;28;20473;-74
2021/08/04 02:57:28;;;;;;;10.43;9.43;;;16.10;74.90;;;;;;5075544;28;20495;-74
2021/08/04 02:59:55;;;;;;;10.23;9.40;;;16.10;74.70;;;;;;5075182;28;20452;-74
2021/08/04 03:02:22;;;;;;;10.13;9.30;;;16.10;74.60;;;;;;5075431;28;20445;-73
2021/08/04 03:04:49;;;;;;;11.07;10.07;;;16.00;74.60;;;;;;5075344;28;20471;-73
2021/08/04 03:07:17;;;;;;;11.83;10.30;;;16.00;74.70;;;;;;5075056;28;20931;-73
2021/08/04 03:09:44;;;;;;;10.67;9.67;;;16.10;74.90;;;;;;5075309;28;20448;-73
2021/08/04 03:12:10;;;;;;;11.87;10.73;;;16.00;75.00;;;;;;5075242;28;20440;-74
2021/08/04 03:14:37;;;;;;;11.67;10.50;;;16.00;75.00;;;;;;5075135;28;20514;-73
2021/08/04 03:17:04;;;;;;;12.07;10.97;;;15.90;75.00;;;;;;5075132;28;20530;-73
2021/08/04 03:19:31;;;;;;;12.97;11.73;;;15.90;75.30;;;;;;5075128;28;20444;-73
2021/08/04 03:21:57;;;;;;;13.50;12.20;;;15.90;75.60;;;;;;5074639;28;20947;-73
2021/08/04 03:24:25;;;;;;;12.37;11.07;;;15.80;76.30;;;;;;5074944;28;20540;-73
2021/08/04 03:26:52;;;;;;;11.83;10.83;;;15.80;76.40;;;;;;5074960;28;20475;-73
2021/08/04 03:29:19;;;;;;;12.43;10.50;;;15.80;76.40;;;;;;5074609;28;20445;-73
2021/08/04 03:31:46;;;;;;;11.27;10.03;;;15.80;76.20;;;;;;5074978;28;20441;-73
2021/08/04 03:34:12;;;;;;;11.73;10.53;;;15.80;76.00;;;;;;5074713;28;20866;-73
2021/08/04 03:36:39;;;;;;;10.63;9.80;;;15.80;76.10;;;;;;5074712;28;20885;-73
2021/08/04 03:39:06;;;;;;;10.67;9.80;;;15.80;76.10;;;;;;5074722;28;20440;-73
2021/08/04 03:41:34;;;;;;;12.40;11.23;;;15.80;75.80;;;;;;5074309;28;20451;-73
2021/08/04 03:44:01;;;;;;;12.17;11.17;;;15.70;75.60;;;;;;5074574;28;20473;-73
2021/08/04 03:46:27;;;;;;;13.90;12.67;;;15.70;75.70;;;;;;5074323;28;20919;-73
2021/08/04 03:48:54;;;;;;;15.43;12.13;;;15.60;75.80;;;;;;5074526;28;20451;-73
2021/08/04 03:51:21;;;;;;;12.97;11.83;;;15.60;76.50;;;;;;5074044;28;20456;-74
2021/08/04 03:53:47;;;;;;;12.93;11.83;;;15.50;77.10;;;;;;5074373;28;20468;-73
2021/08/04 03:56:14;;;;;;;13.00;11.80;;;15.50;77.50;;;;;;5074005;28;20502;-74
2021/08/04 03:58:42;;;;;;;12.20;11.07;;;15.40;77.40;;;;;;5074369;28;20453;-73
2021/08/04 04:01:09;;;;;;;12.30;11.10;;;15.40;77.40;;;;;;5074310;28;20457;-73
2021/08/04 04:03:35;;;;;;;13.17;11.70;;;15.40;77.30;;;;;;5074210;28;20444;-73
2021/08/04 04:06:03;;;;;;;13.83;11.50;;;15.50;77.40;;;;;;5074201;28;20498;-73
2021/08/04 04:08:29;;;;;;;10.97;10.03;;;15.50;77.40;;;;;;5074148;28;20498;-73
2021/08/04 04:10:56;;;;;;;12.47;11.27;;;15.50;77.30;;;;;;5074133;28;20436;-73
2021/08/04 04:13:23;;;;;;;12.20;11.10;;;15.50;77.20;;;;;;5074020;28;20445;-73
2021/08/04 04:15:51;;;;;;;11.97;10.97;;;15.50;77.10;;;;;;5073947;28;20472;-73
2021/08/04 04:18:18;;;;;;;12.23;11.10;;;15.50;77.20;;;;;;5073653;28;20813;-73
2021/08/04 04:20:44;;;;;;;11.97;10.77;;;15.50;77.40;;;;;;5073931;28;20445;-73
2021/08/04 04:23:11;;;;;;;12.80;11.43;;;15.50;77.60;;;;;;5073564;28;20464;-73
2021/08/04 04:25:38;;;;;;;13.17;11.97;;;15.50;77.80;;;;;;5073814;28;20461;-73
2021/08/04 04:28:05;;;;;;;14.33;12.90;;;15.60;78.10;;;;;;5073872;28;20441;-73
2021/08/04 04:30:31;;;;;;;13.70;11.87;;;15.50;78.20;;;;;;5073826;28;20444;-74
2021/08/04 04:32:59;;;;;;;16.20;14.50;;;15.40;78.60;;;;;;5073782;28;20445;-73
2021/08/04 04:35:26;;;;;;;19.35;17.45;;;15.40;79.50;;;;;;5073174;28;20438;-73
2021/08/04 04:37:52;;;;;;;21.10;16.73;;;15.40;81.10;;;;;;5073738;28;20264;-73
2021/08/04 04:40:19;;;;;;;18.13;15.97;;;15.40;82.20;;;;;;5073694;28;20447;-74
2021/08/04 04:42:46;;;;;;;19.90;16.50;;;15.50;82.80;;;;;;5073704;28;20444;-74
2021/08/04 04:45:13;;;;;;;17.07;15.50;;;15.60;83.00;;;;;;5073576;28;20464;-74
2021/08/04 04:47:39;;;;;;;17.77;14.70;;;15.70;82.90;;;;;;5073570;28;20531;-74
2021/08/04 04:50:09;;;;;;;15.33;13.83;;;15.70;82.70;;;;;;5073258;28;20957;-74
2021/08/04 04:52:40;;;;;;;16.73;15.10;;;15.80;82.60;;;;;;5073574;28;20448;-74
2021/08/04 04:55:08;;;;;;;16.83;15.27;;;15.90;82.30;;;;;;5073542;28;20499;-74
2021/08/04 04:57:34;;;;;;;15.53;13.87;;;15.90;82.00;;;;;;5073452;28;20477;-74
2021/08/04 05:00:01;;;;;;;17.77;15.30;;;16.00;82.10;;;;;;5073159;28;20447;-74
2021/08/04 05:02:28;;;;;;;16.57;14.87;;;16.00;82.00;;;;;;5072965;28;20799;-74
2021/08/04 05:04:56;;;;;;;19.43;16.50;;;16.00;81.90;;;;;;5072676;28;20468;-74
2021/08/04 05:07:25;;;;;;;15.43;14.00;;;16.00;82.20;;;;;;5073347;28;20463;-74
2021/08/04 05:09:51;;;;;;;16.70;15.00;;;16.00;82.50;;;;;;5073389;28;20467;-74
2021/08/04 05:12:18;;;;;;;17.77;15.97;;;16.00;82.70;;;;;;5073337;28;20506;-74
2021/08/04 05:14:44;;;;;;;18.20;16.40;;;16.00;83.90;;;;;;5073249;28;20475;-74
2021/08/04 05:17:13;;;;;;;18.30;16.50;;;16.10;83.60;;;;;;5073238;28;20472;-74
2021/08/04 05:19:40;;;;;;;19.73;17.83;;;16.10;83.80;;;;;;5073238;28;20451;-74
2021/08/04 05:22:07;;;;;;;22.13;16.57;;;16.10;84.00;;;;;;5072750;28;20464;-74
2021/08/04 05:24:35;;;;;;;20.33;18.03;;;16.10;84.20;;;;;;5073143;28;20472;-74
2021/08/04 05:27:02;;;;;;;18.47;15.50;;;16.10;84.30;;;;;;5073205;28;20444;-73
2021/08/04 05:29:29;;;;;;;17.90;16.10;;;16.20;84.50;;;;;;5073203;28;20451;-74
2021/08/04 05:31:55;;;;;;;18.13;16.40;;;16.20;84.30;;;;;;5073108;28;20440;-74
2021/08/04 05:34:22;;;;;;;19.87;17.10;;;16.30;84.40;;;;;;5073077;28;20469;-74
2021/08/04 05:36:49;;;;;;;19.07;17.17;;;16.30;84.30;;;;;;5072767;28;21009;-74
2021/08/04 05:39:16;;;;;;;20.77;18.77;;;16.40;84.10;;;;;;5073076;28;20449;-74
2021/08/04 05:41:44;;;;;;;18.13;16.33;;;16.40;83.70;;;;;;5073069;28;20467;-74
2021/08/04 05:44:11;;;;;;;19.63;17.83;;;16.50;83.80;;;;;;5073002;28;20517;-74
2021/08/04 05:46:37;;;;;;;19.17;17.20;;;16.50;83.80;;;;;;5073031;28;20437;-74
2021/08/04 05:49:04;;;;;;;22.87;18.33;;;16.50;83.80;;;;;;5072659;28;20790;-74
2021/08/04 05:51:31;;;;;;;20.70;18.67;;;16.60;84.00;;;;;;5072970;28;20440;-74
2021/08/04 05:53:58;;;;;;;20.83;18.83;;;16.60;84.20;;;;;;5072587;28;20819;-74
2021/08/04 05:56:24;;;;;;;22.33;20.00;;;16.60;84.50;;;;;;5072834;28;20472;-74
2021/08/04 05:58:52;;;;;;;24.33;22.23;;;16.60;84.70;;;;;;5072897;28;20444;-74
2021/08/04 06:01:19;;;;;;;24.40;22.10;;;16.60;84.80;;;;;;5072556;28;20451;-74
2021/08/04 06:03:46;;;;;;;23.07;20.87;;;16.60;85.30;;;;;;5072728;28;20464;-74
2021/08/04 06:06:12;;;;;;;25.17;22.80;;;16.60;85.70;;;;;;5072806;28;20803;-74
2021/08/04 06:08:39;;;;;;;26.37;23.90;;;16.60;86.00;;;;;;5072844;28;20444;-74
2021/08/04 06:11:06;;;;;;;22.80;20.70;;;16.70;86.20;;;;;;5072517;28;20960;-74
2021/08/04 06:13:32;;;;;;;23.07;20.90;;;16.70;86.50;;;;;;5072828;28;20445;-74
2021/08/04 06:16:01;;;;;;;24.73;22.40;;;16.80;86.80;;;;;;5075445;28;20444;-75
2021/08/04 06:18:27;;;;;;;23.73;21.50;;;16.80;87.10;;;;;;5076345;28;20847;-74
2021/08/04 06:20:54;;;;;;;22.77;20.53;;;16.90;87.00;;;;;;5076321;28;20436;-74
2021/08/04 06:23:21;;;;;;;24.23;21.80;;;16.90;86.70;;;;;;5075753;28;20456;-74
2021/08/04 06:25:47;;;;;;;26.03;23.43;;;17.00;86.80;;;;;;5076155;28;20451;-74
2021/08/04 06:28:14;;;;;;;26.73;24.30;;;17.10;86.90;;;;;;5076105;28;20447;-74
2021/08/04 06:30:41;;;;;;;24.90;22.43;;;17.10;87.10;;;;;;5076205;28;20498;-75
2021/08/04 06:33:09;;;;;;;22.30;20.20;;;17.20;86.90;;;;;;5076066;28;20858;-74
2021/08/04 06:35:37;;;;;;;22.10;19.70;;;17.20;86.40;;;;;;5075948;28;20465;-74
2021/08/04 06:38:04;;;;;;;19.70;17.83;;;17.40;86.50;;;;;;5075628;28;21016;-74
2021/08/04 06:40:30;;;;;;;21.57;19.63;;;17.40;86.10;;;;;;5075974;28;20852;-74
2021/08/04 06:42:57;;;;;;;25.33;22.70;;;17.60;85.80;;;;;;5076629;28;20456;-74
2021/08/04 06:45:24;;;;;;;23.90;21.70;;;17.60;85.50;;;;;;5075451;28;20453;-74
2021/08/04 06:47:50;;;;;;;24.90;20.43;;;17.70;85.20;;;;;;5076072;28;20448;-74
2021/08/04 06:50:19;;;;;;;21.93;20.03;;;17.80;85.50;;;;;;5075743;28;20440;-74
2021/08/04 06:52:45;;;;;;;21.60;19.70;;;17.90;84.90;;;;;;5075646;28;20441;-74
2021/08/04 06:55:12;;;;;;;24.80;22.53;;;18.10;84.40;;;;;;5075721;28;20460;-74
2021/08/04 06:57:39;;;;;;;21.93;19.23;;;18.20;84.10;;;;;;5075515;28;20476;-74
2021/08/04 07:00:07;;;;;;;21.90;20.00;;;18.30;83.20;;;;;;5075268;28;20996;-74
2021/08/04 07:02:33;;;;;;;17.90;16.30;;;18.50;82.60;;;;;;5075562;28;20452;-74
2021/08/04 07:05:00;;;;;;;20.67;18.57;;;18.60;82.40;;;;;;5075080;28;20835;-74
2021/08/04 07:07:28;;;;;;;16.60;15.10;;;18.70;81.30;;;;;;5075412;28;20444;-74
2021/08/04 07:09:55;;;;;;;16.17;14.77;;;18.90;80.00;;;;;;5076198;28;20498;-74
2021/08/04 07:12:21;;;;;;;19.17;17.33;;;19.10;78.60;;;;;;5075308;28;20445;-74
2021/08/04 07:14:49;;;;;;;18.57;16.83;;;19.20;78.40;;;;;;5075207;28;20510;-74
2021/08/04 07:17:15;;;;;;;15.90;14.40;;;19.40;78.30;;;;;;5074865;28;20472;-74
2021/08/04 07:19:42;;;;;;;20.97;18.90;;;19.50;78.60;;;;;;5075197;28;20871;-74
2021/08/04 07:22:09;;;;;;;20.73;18.60;;;19.70;78.50;;;;;;5074946;28;20456;-74
2021/08/04 07:24:37;;;;;;;15.37;13.97;;;19.90;78.70;;;;;;5075104;28;20460;-74
2021/08/04 07:27:04;;;;;;;16.93;14.50;;;20.00;78.00;;;;;;5074309;28;20436;-74
2021/08/04 07:29:31;;;;;;;14.57;13.20;;;20.10;77.10;;;;;;5074980;28;20448;-74
2021/08/04 07:31:58;;;;;;;14.93;13.63;;;20.30;75.50;;;;;;5075020;28;20448;-74
2021/08/04 07:34:25;;;;;;;18.00;14.63;;;20.50;75.20;;;;;;5074901;28;20471;-74
2021/08/04 07:36:53;;;;;;;18.83;16.93;;;20.70;74.90;;;;;;5075071;28;20508;-74
2021/08/04 07:39:21;;;;;;;18.07;16.27;;;20.80;74.00;;;;;;5074543;28;20954;-74
2021/08/04 07:41:49;;;;;;;11.43;10.37;;;21.00;74.60;;;;;;5074795;28;20441;-74
2021/08/04 07:44:15;;;;;;;18.73;15.30;;;21.20;73.20;;;;;;5074638;28;20472;-74
2021/08/04 07:46:42;;;;;;;16.30;14.70;;;21.40;72.50;;;;;;5074629;28;20486;-74
2021/08/04 07:49:09;;;;;;;12.93;11.53;;;21.50;71.20;;;;;;5074555;28;20448;-74
2021/08/04 07:51:35;;;;;;;10.77;9.20;;;21.70;69.60;;;;;;5074195;28;20862;-75
2021/08/04 07:54:02;;;;;;;9.40;8.50;;;21.90;68.70;;;;;;5074422;28;20465;-74
2021/08/04 07:56:29;;;;;;;11.57;10.03;;;22.10;67.50;;;;;;5074413;28;20441;-74
2021/08/04 07:59:02;;;;;;;10.80;9.70;;;22.40;67.90;;;;;;5074369;28;20432;-74
2021/08/04 08:01:29;;;;;;;11.20;10.10;;;22.60;67.50;;;;;;5074410;28;20787;-74
2021/08/04 08:03:55;;;;;;;12.00;8.57;;;22.80;66.30;;;;;;5073915;28;20815;-74
2021/08/04 08:06:22;;;;;;;10.33;8.53;;;23.00;65.40;;;;;;5074228;28;20448;-74
2021/08/04 08:08:49;;;;;;;9.23;8.33;;;23.30;64.60;;;;;;5073889;28;20930;-74
2021/08/04 08:11:16;;;;;;;11.70;6.77;;;23.50;63.40;;;;;;5074078;28;20440;-74
2021/08/04 08:13:42;;;;;;;12.13;9.23;;;23.70;62.10;;;;;;5073770;28;20979;-75
2021/08/04 08:16:10;;;;;;;10.67;8.30;;;23.90;60.40;;;;;;5074064;28;20448;-74
2021/08/04 08:18:37;;;;;;;10.93;6.07;;;24.10;59.50;;;;;;5073972;28;20476;-74
2021/08/04 08:21:04;;;;;;;10.93;9.47;;;24.30;59.30;;;;;;5074033;28;20527;-74
2021/08/04 08:23:31;;;;;;;8.73;7.93;;;24.50;58.60;;;;;;5073504;28;20819;-75
2021/08/04 08:25:57;;;;;;;10.33;8.33;;;24.60;57.80;;;;;;5073899;28;20448;-75
2021/08/04 08:28:24;;;;;;;8.00;5.27;;;24.80;56.90;;;;;;5073555;28;20973;-74
2021/08/04 08:30:51;;;;;;;9.37;7.70;;;24.90;56.20;;;;;;5073819;28;20451;-75
2021/08/04 08:33:19;;;;;;;12.13;6.83;;;25.10;55.80;;;;;;5073789;28;20451;-74
2021/08/04 08:35:46;;;;;;;7.83;5.37;;;25.40;55.70;;;;;;5073779;28;20444;-75
2021/08/04 08:38:12;;;;;;;6.70;5.40;;;25.50;55.00;;;;;;5073570;28;20476;-75
2021/08/04 08:40:39;;;;;;;10.30;6.17;;;25.80;54.30;;;;;;5073818;28;20452;-73
2021/08/04 08:43:06;;;;;;;7.03;6.33;;;26.00;53.40;;;;;;5073722;28;20448;-73
2021/08/04 08:45:33;;;;;;;7.10;5.17;;;26.20;53.30;;;;;;5073597;28;20472;-75
2021/08/04 08:48:00;;;;;;;6.90;5.27;;;26.50;53.10;;;;;;5073606;28;20441;-75
2021/08/04 08:50:28;;;;;;;7.43;5.40;;;26.60;52.60;;;;;;5073566;28;20449;-75
2021/08/04 08:52:56;;;;;;;7.87;6.70;;;26.80;52.00;;;;;;5073699;28;20456;-73
2021/08/04 08:55:23;;;;;;;9.83;6.93;;;27.00;51.20;;;;;;5073795;28;20461;-73
2021/08/04 08:57:50;;;;;;;9.70;8.70;;;27.20;50.90;;;;;;5073416;28;20551;-74
2021/08/04 09:00:17;;;;;;;13.07;10.10;;;27.40;49.70;;;;;;5073477;28;20467;-74
2021/08/04 09:02:45;;;;;;;8.43;7.57;;;27.50;49.30;;;;;;5073485;28;20519;-73
2021/08/04 09:05:13;;;;;;;8.90;7.87;;;27.50;49.10;;;;;;5073380;28;20472;-74
2021/08/04 09:07:43;;;;;;;8.87;8.07;;;27.60;48.70;;;;;;5073430;28;20437;-73
2021/08/04 09:10:30;;;;;;;10.50;7.90;;;27.50;48.70;;;;;;5073406;28;20448;-73
2021/08/04 09:12:58;;;;;;;12.20;8.73;;;27.30;48.30;;;;;;5073393;28;20429;-74
2021/08/04 09:15:30;;;;;;;9.80;7.50;;;27.20;48.50;;;;;;5073317;28;20856;-74
2021/08/04 09:18:02;;;;;;;7.93;6.80;;;27.20;48.70;;;;;;5073334;28;20469;-74
2021/08/04 09:20:29;;;;;;;10.10;6.67;;;27.10;48.70;;;;;;5073264;28;20467;-74
2021/08/04 09:23:01;;;;;;;7.53;6.10;;;27.10;48.90;;;;;;5072965;28;20494;-74
2021/08/04 09:25:29;;;;;;;7.80;6.37;;;27.20;49.20;;;;;;5073210;28;20475;-74
2021/08/04 09:27:57;;;;;;;7.93;5.73;;;27.50;49.70;;;;;;5073230;28;20452;-74
2021/08/04 09:30:27;;;;;;;11.97;10.40;;;27.80;49.40;;;;;;5073238;28;20448;-74
2021/08/04 09:33:05;;;;;;;8.77;6.80;;;28.00;48.60;;;;;;5073208;28;20444;-74
2021/08/04 09:35:42;;;;;;;8.57;7.67;;;28.10;47.80;;;;;;5073141;28;20456;-73
2021/08/04 09:38:10;;;;;;;7.40;6.63;;;28.00;47.40;;;;;;5073044;28;20471;-73
2021/08/04 09:40:37;;;;;;;12.10;8.17;;;27.90;47.60;;;;;;5073103;28;20452;-74
2021/08/04 09:43:04;;;;;;;8.37;7.57;;;27.90;47.80;;;;;;5074663;28;20467;-76
2021/08/04 09:45:40;;;;;;;13.20;11.63;;;28.10;47.70;;;;;;5073316;28;20472;-77
2021/08/04 09:48:09;;;;;;;14.37;12.10;;;28.30;47.60;;;;;;5074606;28;20421;-78
2021/08/04 09:50:52;;;;;;;12.77;10.37;;;28.30;46.40;;;;;;5075763;28;20449;-76
2021/08/04 09:53:23;;;;;;;14.27;12.60;;;28.10;46.10;;;;;;5075309;28;20460;-78
2021/08/04 09:56:11;;;;;;;10.97;9.47;;;27.90;45.50;;;;;;5078066;28;20416;-77
2021/08/04 09:58:41;;;;;;;9.17;7.80;;;27.90;45.30;;;;;;5077955;28;20480;-77
2021/08/04 10:01:10;;;;;;;7.10;5.90;;;28.10;44.60;;;;;;5078491;28;20449;-77
2021/08/04 10:03:37;;;;;;;7.40;5.80;;;28.50;45.50;;;;;;5078725;28;20440;-78
2021/08/04 10:06:04;;;;;;;9.20;7.40;;;29.00;44.80;;;;;;5078946;28;20441;-78
2021/08/04 10:08:32;;;;;;;11.23;7.03;;;29.20;43.90;;;;;;5077778;28;20447;-76
2021/08/04 10:10:59;;;;;;;7.87;7.17;;;29.40;44.10;;;;;;5076512;28;20453;-76
2021/08/04 10:13:28;;;;;;;6.80;6.20;;;29.70;44.00;;;;;;5076094;28;20957;-76
2021/08/04 10:15:59;;;;;;;7.30;6.60;;;29.80;43.80;;;;;;5077237;28;20452;-76
2021/08/04 10:18:29;;;;;;;5.90;5.40;;;29.80;43.60;;;;;;5078806;28;20985;-78
2021/08/04 10:20:59;;;;;;;6.20;5.60;;;29.80;43.50;;;;;;5078210;28;21000;-77
2021/08/04 10:23:26;;;;;;;6.10;5.60;;;30.10;43.30;;;;;;5078354;28;20456;-76
2021/08/04 10:25:57;;;;;;;6.67;6.03;;;30.70;43.30;;;;;;5078102;28;20447;-78
2021/08/04 10:28:24;;;;;;;8.47;7.20;;;31.30;42.30;;;;;;5078514;28;20499;-78
2021/08/04 10:30:51;;;;;;;8.77;7.93;;;32.00;40.50;;;;;;5078734;28;20497;-78
2021/08/04 10:33:19;;;;;;;6.37;5.87;;;32.60;38.70;;;;;;5078704;28;20441;-76
2021/08/04 10:35:49;;;;;;;6.20;5.70;;;33.30;37.30;;;;;;5076951;28;20475;-76
2021/08/04 10:38:20;;;;;;;13.13;11.93;;;34.00;36.00;;;;;;5077365;28;20471;-76
2021/08/04 10:41:07;;;;;;;8.83;7.93;;;34.60;33.70;;;;;;5079534;28;20424;-76
2021/08/04 10:43:39;;;;;;;9.50;8.70;;;35.10;32.60;;;;;;5076082;28;20435;-77
2021/08/04 10:46:53;;;;;;;7.47;6.87;;;35.70;30.40;;;;;;5076085;28;20439;-77
2021/08/04 10:49:26;;;;;;;10.60;9.57;;;36.10;29.30;;;;;;5040501;28;20456;-77
2021/08/04 10:52:10;;;;;;;8.00;7.37;;;36.70;29.70;;;;;;5076271;28;20191;-77
2021/08/04 10:54:37;;;;;;;13.20;11.60;;;37.20;29.10;;;;;;5081921;28;20264;-79
2021/08/04 10:57:09;;;;;;;8.67;6.97;;;37.10;28.50;;;;;;5077959;28;20676;-77
2021/08/04 10:59:41;;;;;;;12.13;9.97;;;36.60;28.60;;;;;;5077006;28;20232;-77
2021/08/04 11:02:29;;;;;;;12.70;8.60;;;35.90;29.40;;;;;;5074286;28;20209;-77
2021/08/04 11:04:56;;;;;;;10.63;7.37;;;35.20;30.60;;;;;;5078967;28;20550;-77
2021/08/04 11:07:24;;;;;;;7.53;6.93;;;34.50;31.90;;;;;;5080386;28;20444;-78
2021/08/04 11:10:15;;;;;;;8.87;8.27;;;34.00;33.70;;;;;;5079587;28;20455;-78
2021/08/04 11:12:47;;;;;;;8.47;7.77;;;33.40;33.30;;;;;;5077443;28;20484;-78
2021/08/04 11:15:30;;;;;;;6.50;5.80;;;33.00;33.90;;;;;;5079218;28;20472;-78
2021/08/04 11:18:07;;;;;;;10.00;7.77;;;32.60;35.10;;;;;;5078736;28;20460;-78
2021/08/04 11:20:35;;;;;;;9.87;6.20;;;32.50;35.90;;;;;;5077537;28;20440;-78
2021/08/04 11:23:05;;;;;;;8.57;5.27;;;32.70;35.80;;;;;;5076547;28;20471;-77
2021/08/04 11:25:38;;;;;;;6.40;5.90;;;33.40;35.40;;;;;;5076784;28;20464;-78
2021/08/04 11:28:24;;;;;;;9.37;7.33;;;34.40;32.70;;;;;;5077569;28;20889;-76
2021/08/04 11:30:55;;;;;;;6.10;5.60;;;35.50;30.80;;;;;;5075290;28;20474;-76
2021/08/04 11:33:35;;;;;;;5.93;4.70;;;36.70;29.30;;;;;;5076008;28;20435;-76
2021/08/04 11:36:14;;;;;;;5.27;4.80;;;37.80;28.80;;;;;;5075052;28;20186;-77
2021/08/04 11:38:44;;;;;;;4.85;4.45;;;38.80;27.10;;;;;;5074992;28;20228;-77
2021/08/04 11:41:16;;;;;;;4.68;4.35;;;39.80;25.90;;;;;;5075003;28;20296;-76
2021/08/04 11:43:43;;;;;;;4.10;3.80;;;40.60;25.10;;;;;;5074709;28;20233;-77
2021/08/04 11:46:27;;;;;;;4.70;4.38;;;41.20;24.20;;;;;;5076585;28;20209;-78
2021/08/04 11:48:54;;;;;;;6.00;5.40;;;41.50;23.90;;;;;;5075466;28;20212;-77
2021/08/04 11:51:35;;;;;;;6.85;6.20;;;41.30;23.50;;;;;;5075237;28;20201;-77
2021/08/04 11:54:02;;;;;;;6.75;4.93;;;40.80;23.90;;;;;;5074364;28;20715;-76
2021/08/04 11:56:29;;;;;;;4.65;4.25;;;40.10;24.70;;;;;;5074704;28;20209;-77
2021/08/04 11:59:01;;;;;;;6.97;5.07;;;39.30;25.50;;;;;;5074511;28;20225;-78
2021/08/04 12:01:29;;;;;;;5.45;5.05;;;38.40;26.40;;;;;;5074730;28;20190;-76
2021/08/04 12:04:04;;;;;;;5.07;4.68;;;37.50;27.50;;;;;;5075754;28;20236;-78
2021/08/04 12:06:33;;;;;;;6.40;5.90;;;36.60;28.60;;;;;;5075781;28;20201;-78
2021/08/04 12:09:18;;;;;;;7.73;7.03;;;35.70;29.50;;;;;;5077245;28;20200;-76
2021/08/04 12:11:45;;;;;;;6.97;6.47;;;34.90;30.40;;;;;;5076156;28;20190;-77
2021/08/04 12:14:13;;;;;;;7.60;7.00;;;34.30;31.50;;;;;;5074499;28;20474;-77
2021/08/04 12:16:44;;;;;;;8.13;7.53;;;33.80;32.30;;;;;;5074312;28;20816;-77
2021/08/04 12:19:11;;;;;;;9.17;8.37;;;33.30;32.90;;;;;;5074270;28;20486;-77
2021/08/04 12:21:37;;;;;;;8.93;8.23;;;33.00;33.50;;;;;;5073836;28;20447;-77
2021/08/04 12:24:05;;;;;;;7.20;6.70;;;32.70;34.00;;;;;;5073959;28;20550;-76
2021/08/04 12:26:43;;;;;;;6.40;5.80;;;32.40;34.30;;;;;;5073942;28;20539;-77
2021/08/04 12:29:18;;;;;;;7.53;6.77;;;32.40;35.00;;;;;;5074095;28;20424;-76
2021/08/04 12:32:14;;;;;;;6.47;5.97;;;32.50;35.30;;;;;;5076696;28;20443;-77
2021/08/04 12:34:49;;;;;;;6.97;6.27;;;32.80;35.00;;;;;;5074667;28;20471;-78
2021/08/04 12:37:16;;;;;;;6.00;5.33;;;33.40;34.10;;;;;;5074954;28;20426;-78
2021/08/04 12:39:44;;;;;;;7.50;7.00;;;34.00;32.80;;;;;;5075988;28;20475;-78
2021/08/04 12:42:12;;;;;;;6.13;5.63;;;34.50;32.00;;;;;;5076488;28;20930;-78
2021/08/04 12:44:39;;;;;;;6.23;5.73;;;34.90;31.10;;;;;;5076317;28;20467;-78